Latest Coastal Weather Observations for Cape Sorell

IDT60701

Issued at 7:32 am EST Wednesday 1 July 2015 (issued every 10 minutes, with the page automatically refreshed every 10 minutes)

About coastal observations | Map of coastal stations | Coastal observations for TAS | Marine services | Other Formats
Station Details ID: 097000 Name: CAPE SORELL Lat: -42.20 Lon: 145.17 Height: 19.3 m
Data from the previous 72 hours. | See also: Recent months at Cape Sorell
Date/Time
EST
Temp

°C
Wind Pressure Rain
since 9am
mm
Weather Cloud Vis
km
Sea
Height
m
Swell
Dir
 
Speed
knots
Gust
knots
hPa Trend Height
m
Period
s
Dir
01/07:30am 11.4 NW 17 21 1020.4 - 3.0 - - - - - - -
01/07:00am 11.3 NW 15 21 1020.6 - 3.0 - - - - - - -
01/06:30am 11.3 NW 16 21 1020.8 - 3.0 - - - - - - -
01/06:00am 11.1 NW 16 21 1020.9 - 3.0 - - - - - - -
01/05:30am 10.9 NW 12 19 1021.3 - 3.0 - - - - - - -
01/05:00am 10.6 NW 14 21 1021.6 - 3.0 - - - - - - -
01/04:30am 10.6 WNW 17 22 1021.7 - 3.0 - - - - - - -
01/04:00am 10.9 NW 15 21 1022.1 - 3.0 - - - - - - -
01/03:30am 10.6 WNW 16 22 1022.4 - 3.0 - - - - - - -
01/03:14am 10.9 NW 15 27 1022.2 - 3.0 - - - - - - -
01/03:00am 10.6 NW 13 17 1022.4 - 3.0 Recent precip. - - - - - -
01/02:30am 10.6 WNW 14 18 1022.8 - 2.8 - - - - - - -
01/02:00am 10.6 NW 13 16 1022.7 - 2.8 - - - - - - -
01/01:30am 10.2 WNW 15 22 1022.9 - 2.8 - - - - - - -
01/01:00am 10.4 NW 13 19 1023.2 - 2.4 - - - - - - -
01/12:30am 10.4 NNW 9 12 1023.4 - 2.4 - - - - - - -
01/12:00am 10.3 NNW 11 17 1023.6 - 1.6 Recent precip. - - - - - -
 
Date/Time
EST
Temp

°C
Wind Pressure Rain
since 9am
mm
Weather Cloud Vis
km
Sea
Height
m
Swell
Dir
 
Speed
knots
Gust
knots
hPa Trend Height
m
Period
s
Dir
30/11:30pm 10.6 N 17 20 1023.7 - 1.2 - - - - - - -
30/11:00pm 10.7 N 12 15 1023.9 - 0.8 - - - - - - -
30/10:30pm 11.1 NNW 12 15 1024.1 - 0.6 - - - - - - -
30/10:00pm 11.4 NW 9 16 1024.4 - 0.4 - - - - - - -
30/09:30pm 11.1 NW 8 10 1024.6 - 0.4 - - - - - - -
30/09:00pm 10.9 NW 7 12 1024.6 - 0.4 - - - - - - -
30/08:30pm 11.1 NW 8 10 1024.7 - 0.4 - - - - - - -
30/08:00pm 11.2 NW 7 11 1024.7 - 0.4 - - - - - - -
30/07:30pm 10.8 NW 7 10 1024.6 - 0.4 - - - - - - -
30/07:00pm 10.5 NW 6 8 1024.6 - 0.4 - - - - - - -
30/06:30pm 11.0 NW 7 9 1024.6 - 0.4 - - - - - - -
30/06:00pm 10.8 NNW 6 8 1024.5 - 0.4 - - - - - - -
30/05:30pm 10.4 NW 7 9 1024.5 - 0.4 - - - - - - -
30/05:00pm 10.6 NW 5 7 1024.6 - 0.4 - - - - - - -
30/04:30pm 11.0 NW 6 8 1024.6 - 0.4 - - - - - - -
30/04:00pm 11.3 NNW 5 7 1024.4 - 0.4 - - - - - - -
30/03:30pm 11.6 N 6 8 1024.4 - 0.4 - - - - - - -
30/03:00pm 12.0 N 5 8 1024.3 - 0.4 - - - - - - -
30/02:30pm 11.9 N 6 7 1024.5 - 0.4 - - - - - - -
30/02:00pm 10.8 N 6 7 1024.8 - 0.4 - - - - - - -
30/01:30pm 11.8 N 4 7 1025.1 - 0.4 - - - - - - -
30/01:00pm 12.1 NW 3 3 1025.4 - 0.4 - - - - - - -
30/12:30pm 10.1 W 6 9 1025.7 - 0.4 - - - - - - -
30/12:00pm 10.6 WNW 9 12 1025.8 - 0.2 - - - - - - -
30/11:30am 11.0 NW 4 7 1026.1 - 0.2 - - - - - - -
30/11:00am 10.9 N 4 6 1026.3 - 0.2 - - - - - - -
30/10:30am 11.1 NW 5 8 1026.5 - 0.2 - - - - - - -
30/10:00am 10.1 WNW 8 11 1026.5 - 0.2 - - - - - - -
30/09:30am 9.8 WNW 8 12 1026.4 - 0.2 - - - - - - -
30/09:00am 9.7 WNW 7 12 1026.4 - - - - - - - - -
30/08:30am 9.7 WNW 7 9 1026.3 - - - - - - - - -
30/08:00am 9.8 WNW 10 14 1026.2 - - - - - - - - -
30/07:30am 9.9 W 7 12 1026.1 - - - - - - - - -
30/07:00am 10.1 WNW 8 11 1025.9 - - - - - - - - -
30/06:30am 10.3 NW 7 10 1025.8 - - - - - - - - -
30/06:00am 10.1 N 10 14 1025.5 - - Rain - - - - - -
30/05:30am 10.2 NNW 10 13 1025.6 - - - - - - - - -
30/05:00am 10.1 NW 9 11 1025.6 - - - - - - - - -
30/04:30am 10.4 NNW 8 13 1025.6 - - - - - - - - -
30/04:00am 10.2 N 11 13 1025.9 - - - - - - - - -
30/03:30am 10.0 NNW 9 14 1026.1 - - - - - - - - -
30/03:00am 10.7 NNW 10 15 1026.1 - 0.2 - - - - - - -
30/02:30am 10.2 NNW 9 13 1026.3 - - - - - - - - -
30/02:00am 10.7 NNW 9 12 1026.3 - - - - - - - - -
30/01:30am 10.5 NNW 9 13 1026.4 - - - - - - - - -
30/01:00am 10.3 NNW 9 12 1026.6 - - - - - - - - -
30/12:30am 10.3 NNW 10 13 1027.0 - - - - - - - - -
30/12:00am 10.6 NNW 9 11 1027.0 - - Recent precip. - - - - - -
 
Date/Time
EST
Temp

°C
Wind Pressure Rain
since 9am
mm
Weather Cloud Vis
km
Sea
Height
m
Swell
Dir
 
Speed
knots
Gust
knots
hPa Trend Height
m
Period
s
Dir
29/11:30pm 10.5 NNW 9 13 1027.0 - - - - - - - - -
29/11:00pm 10.8 NNW 8 12 1027.1 - - - - - - - - -
29/10:30pm 10.4 NW 9 13 1027.3 - - - - - - - - -
29/10:00pm 10.2 WNW 12 14 1027.3 - - - - - - - - -
29/09:30pm 10.2 NW 9 12 1027.5 - - - - - - - - -
29/09:00pm 10.4 NNW 7 10 1027.6 - 0.2 Recent precip. - - - - - -
29/08:30pm 10.1 NNW 11 14 1027.7 - - - - - - - - -
29/08:00pm 10.8 NNW 5 8 1027.7 - - - - - - - - -
29/07:30pm 10.3 NW 8 14 1027.8 - - - - - - - - -
29/07:00pm 10.5 WNW 10 12 1027.6 - - - - - - - - -
29/06:30pm 10.9 NNW 8 10 1027.5 - - - - - - - - -
29/06:00pm 10.4 NW 7 12 1027.5 - - - - - - - - -
29/05:30pm 11.3 NW 9 15 1027.6 - - - - - - - - -
29/05:00pm 11.2 NW 9 12 1027.6 - - - - - - - - -
29/04:30pm 11.0 NW 12 16 1027.6 - - - - - - - - -
29/04:00pm 11.3 NW 8 13 1027.7 - - - - - - - - -
29/03:30pm 11.7 WNW 9 12 1027.8 - - - - - - - - -
29/03:00pm 11.5 WNW 11 15 1027.7 - - - - - - - - -
29/02:30pm 11.5 WNW 12 16 1027.6 - - - - - - - - -
29/02:00pm 11.6 WNW 13 19 1027.7 - - - - - - - - -
29/01:30pm 11.9 NW 12 15 1028.0 - - - - - - - - -

Other Formats:

Comma delimited format used in spreadsheet applications
http://www.bom.gov.au/fwo/IDT60701/IDT60701.94974.axf

JavaScript Object Notation format (JSON) in row-major order
http://www.bom.gov.au/fwo/IDT60701/IDT60701.94974.json